Time;durP1;ratioP1;P1;durP2;ratioP2;P2;SDS_P1;SDS_P2;PMS_P1;PMS_P2;Temp;Humidity;BMP_temperature;BMP_pressure;BME280_temperature;BME280_humidity;BME280_pressure;Samples;Min_cycle;Max_cycle;Signal;HPM_P1;HPM_P2
2021/04/08 00:00:27;;;;;;;6.18;3.85;;;22.70;27.40;;;;;;6212305;28;80584;-65
2021/04/08 00:03:27;;;;;;;4.95;3.60;;;22.70;27.30;;;;;;6222434;28;81478;-65
2021/04/08 00:06:28;;;;;;;7.05;3.63;;;22.70;27.20;;;;;;6221774;28;81695;-65
2021/04/08 00:09:28;;;;;;;6.82;3.95;;;22.70;27.20;;;;;;6236327;28;81603;-65
2021/04/08 00:12:29;;;;;;;5.68;3.67;;;22.70;27.20;;;;;;6189117;28;80787;-64
2021/04/08 00:15:30;;;;;;;8.02;3.85;;;22.70;27.20;;;;;;6190560;28;82671;-64
2021/04/08 00:18:30;;;;;;;5.82;3.40;;;22.70;27.10;;;;;;6190298;28;81490;-64
2021/04/08 00:21:31;;;;;;;7.32;3.63;;;22.70;27.10;;;;;;6214681;28;81004;-64
2021/04/08 00:24:31;;;;;;;5.93;3.78;;;22.70;27.10;;;;;;6204111;28;83128;-65
2021/04/08 00:27:32;;;;;;;9.05;3.72;;;22.60;27.00;;;;;;6193794;28;81157;-64
2021/04/08 00:30:42;;;;;;;7.50;3.83;;;22.60;27.00;;;;;;6206151;28;80723;-64
2021/04/08 00:33:43;;;;;;;7.30;3.83;;;22.60;27.00;;;;;;6212701;28;80556;-66
2021/04/08 00:36:43;;;;;;;6.40;4.05;;;22.60;27.00;;;;;;6213515;28;81749;-67
2021/04/08 00:39:44;;;;;;;7.32;4.05;;;22.60;26.90;;;;;;6194427;27;81668;-66
2021/04/08 00:42:44;;;;;;;5.45;3.42;;;22.60;26.90;;;;;;6207917;28;81452;-65
2021/04/08 00:45:45;;;;;;;5.97;3.70;;;22.60;26.90;;;;;;6184403;28;81532;-64
2021/04/08 00:48:45;;;;;;;6.10;3.72;;;22.60;26.90;;;;;;6223880;28;80266;-65
2021/04/08 00:51:46;;;;;;;5.07;3.25;;;22.60;26.90;;;;;;6223202;28;81283;-65
2021/04/08 00:54:46;;;;;;;6.07;3.50;;;22.60;26.80;;;;;;6187853;27;80368;-65
2021/04/08 00:57:47;;;;;;;5.07;3.47;;;22.60;26.80;;;;;;6193275;28;87919;-65
2021/04/08 01:00:47;;;;;;;6.47;3.50;;;22.60;26.80;;;;;;6192772;28;80445;-65
2021/04/08 01:03:48;;;;;;;5.68;3.58;;;22.60;26.80;;;;;;6198838;28;80936;-65
2021/04/08 01:06:49;;;;;;;7.60;3.67;;;22.60;26.80;;;;;;6188556;28;81618;-66
2021/04/08 01:09:49;;;;;;;5.22;3.63;;;22.60;26.70;;;;;;6195107;28;80726;-66
2021/04/08 01:12:50;;;;;;;7.15;3.60;;;22.60;26.70;;;;;;6196192;28;81083;-65
2021/04/08 01:15:50;;;;;;;6.22;3.45;;;22.60;26.70;;;;;;6190171;28;80323;-67
2021/04/08 01:18:51;;;;;;;7.20;3.55;;;22.60;26.70;;;;;;6188783;28;81023;-66
2021/04/08 01:21:51;;;;;;;5.65;3.45;;;22.60;26.70;;;;;;6203283;28;82138;-67
2021/04/08 01:24:52;;;;;;;5.30;3.38;;;22.60;26.60;;;;;;6202759;27;80742;-67
2021/04/08 01:27:52;;;;;;;5.30;3.47;;;22.60;26.60;;;;;;6187291;28;80871;-67
2021/04/08 01:30:53;;;;;;;6.57;3.78;;;22.60;26.70;;;;;;6203429;27;80470;-68
2021/04/08 01:33:53;;;;;;;6.68;3.72;;;22.70;26.70;;;;;;6200352;28;80814;-65
2021/04/08 01:36:54;;;;;;;5.60;3.40;;;22.60;26.70;;;;;;6211797;28;80621;-66
2021/04/08 01:39:54;;;;;;;4.78;3.30;;;22.60;26.60;;;;;;6199670;28;83382;-65
2021/04/08 01:42:55;;;;;;;4.85;3.60;;;22.60;26.60;;;;;;6199430;28;81654;-65
2021/04/08 01:45:55;;;;;;;4.95;3.30;;;22.60;26.60;;;;;;6193428;28;80988;-65
2021/04/08 01:48:56;;;;;;;5.78;3.38;;;22.60;26.90;;;;;;6189999;28;80991;-65
2021/04/08 01:51:57;;;;;;;6.28;3.83;;;22.60;26.60;;;;;;6197192;28;82994;-65
2021/04/08 01:54:57;;;;;;;5.60;3.50;;;22.50;26.60;;;;;;6211672;28;80789;-65
2021/04/08 01:57:58;;;;;;;5.15;3.35;;;22.50;26.60;;;;;;6193105;28;83253;-66
2021/04/08 02:00:58;;;;;;;5.53;3.60;;;22.50;26.70;;;;;;6204700;28;80719;-65
2021/04/08 02:03:59;;;;;;;4.35;3.15;;;22.50;26.60;;;;;;6197720;27;80575;-65
2021/04/08 02:06:59;;;;;;;5.85;3.70;;;22.50;26.60;;;;;;6222886;27;85070;-65
2021/04/08 02:10:00;;;;;;;5.45;3.42;;;22.60;26.70;;;;;;6228589;27;80592;-66
2021/04/08 02:13:00;;;;;;;5.32;3.83;;;22.50;26.60;;;;;;6204638;27;80413;-66
2021/04/08 02:16:01;;;;;;;4.85;3.40;;;22.50;27.10;;;;;;6206461;27;80506;-64
2021/04/08 02:19:01;;;;;;;6.80;3.40;;;22.50;26.50;;;;;;6221248;28;80905;-65
2021/04/08 02:22:02;;;;;;;6.28;3.35;;;22.50;26.50;;;;;;6190514;28;80821;-65
2021/04/08 02:25:03;;;;;;;8.13;3.50;;;22.50;26.50;;;;;;6186527;28;81937;-65
2021/04/08 02:28:03;;;;;;;7.60;3.65;;;22.50;26.50;;;;;;6198904;28;80801;-65
2021/04/08 02:31:04;;;;;;;4.35;2.78;;;22.50;26.50;;;;;;6200368;28;80635;-65
2021/04/08 02:34:04;;;;;;;5.32;3.15;;;22.50;26.40;;;;;;6194887;28;81543;-65
2021/04/08 02:37:05;;;;;;;4.65;2.78;;;22.50;26.50;;;;;;6195771;28;80458;-66
2021/04/08 02:40:05;;;;;;;7.25;3.53;;;22.50;26.90;;;;;;6195891;27;81301;-65
2021/04/08 02:43:06;;;;;;;4.28;3.00;;;22.50;26.50;;;;;;6200731;28;82366;-65
2021/04/08 02:46:06;;;;;;;4.20;2.60;;;22.50;26.40;;;;;;6235973;27;82141;-65
2021/04/08 02:49:07;;;;;;;3.30;2.80;;;22.50;26.50;;;;;;6205143;27;80462;-65
2021/04/08 02:52:07;;;;;;;4.70;3.35;;;22.50;26.50;;;;;;6190665;28;80543;-65
2021/04/08 02:55:08;;;;;;;3.53;2.65;;;22.50;26.50;;;;;;6201129;27;80580;-65
2021/04/08 02:58:08;;;;;;;3.70;2.90;;;22.50;26.50;;;;;;6189140;28;80875;-65
2021/04/08 03:01:09;;;;;;;4.45;2.95;;;22.50;26.50;;;;;;6210457;28;80479;-65
2021/04/08 03:04:09;;;;;;;4.30;3.08;;;22.50;26.50;;;;;;6195947;27;80429;-66
2021/04/08 03:07:10;;;;;;;5.90;2.67;;;22.40;26.40;;;;;;6199283;28;80430;-66
2021/04/08 03:10:11;;;;;;;4.05;3.00;;;22.40;26.40;;;;;;6198546;28;81439;-66
2021/04/08 03:13:11;;;;;;;5.15;2.72;;;22.40;26.70;;;;;;6198329;28;80983;-66
2021/04/08 03:16:11;;;;;;;5.90;2.90;;;22.50;27.00;;;;;;6197249;28;81425;-65
2021/04/08 03:19:12;;;;;;;5.18;2.58;;;22.50;26.60;;;;;;6192334;28;81649;-67
2021/04/08 03:22:12;;;;;;;4.03;2.97;;;22.50;26.40;;;;;;6186634;28;80480;-66
2021/04/08 03:25:13;;;;;;;3.90;2.78;;;22.60;26.10;;;;;;6204930;27;81805;-65
2021/04/08 03:28:13;;;;;;;4.82;3.10;;;22.60;26.40;;;;;;6219390;27;80458;-66
2021/04/08 03:31:14;;;;;;;4.93;2.75;;;22.60;26.40;;;;;;6205294;28;80637;-66
2021/04/08 03:34:14;;;;;;;4.28;2.75;;;22.60;26.30;;;;;;6218812;28;80714;-66
2021/04/08 03:37:15;;;;;;;3.40;2.90;;;22.60;26.20;;;;;;6200010;28;80867;-66
2021/04/08 03:40:15;;;;;;;4.10;2.60;;;22.60;26.20;;;;;;6194782;28;81010;-65
2021/04/08 03:43:16;;;;;;;5.45;3.17;;;22.60;26.00;;;;;;6201815;28;83117;-66
2021/04/08 03:46:16;;;;;;;3.97;3.03;;;22.70;26.10;;;;;;6222201;28;81665;-66
2021/04/08 03:49:17;;;;;;;2.88;2.40;;;22.70;25.80;;;;;;6211894;27;80610;-65
2021/04/08 03:52:18;;;;;;;3.70;2.80;;;22.70;25.80;;;;;;6197827;28;80756;-65
2021/04/08 03:55:18;;;;;;;2.72;2.20;;;22.70;25.60;;;;;;6194933;28;80761;-65
2021/04/08 03:58:19;;;;;;;3.58;2.47;;;22.80;25.70;;;;;;6194505;28;80845;-66
2021/04/08 04:01:19;;;;;;;3.28;2.53;;;22.80;25.60;;;;;;6201225;28;80770;-66
2021/04/08 04:04:20;;;;;;;2.85;2.40;;;22.80;25.50;;;;;;6202695;28;80389;-66
2021/04/08 04:07:20;;;;;;;3.55;2.58;;;22.80;25.40;;;;;;6229470;27;81693;-66
2021/04/08 04:10:22;;;;;;;4.40;2.70;;;22.80;25.30;;;;;;6193949;28;80361;-66
2021/04/08 04:13:22;;;;;;;3.30;2.70;;;22.80;25.30;;;;;;6201632;28;80891;-66
2021/04/08 04:16:23;;;;;;;3.70;2.65;;;22.80;25.30;;;;;;6214946;27;80693;-65
2021/04/08 04:19:23;;;;;;;4.63;2.40;;;22.80;25.20;;;;;;6198791;27;82429;-65
2021/04/08 04:22:24;;;;;;;2.75;2.33;;;22.90;25.20;;;;;;6203970;28;81020;-66
2021/04/08 04:25:24;;;;;;;5.25;2.70;;;22.90;25.10;;;;;;6207426;28;80797;-65
2021/04/08 04:28:25;;;;;;;2.63;2.17;;;22.90;25.60;;;;;;6174731;28;81143;-66
2021/04/08 04:31:25;;;;;;;3.08;2.53;;;22.90;25.00;;;;;;6203490;28;81206;-67
2021/04/08 04:34:26;;;;;;;5.07;2.88;;;22.90;25.10;;;;;;6213903;27;82510;-66
2021/04/08 04:37:26;;;;;;;3.72;2.97;;;22.90;25.10;;;;;;6193968;28;81160;-65
2021/04/08 04:40:27;;;;;;;3.05;2.45;;;22.90;25.10;;;;;;6219463;28;80812;-65
2021/04/08 04:43:27;;;;;;;4.28;2.75;;;23.00;25.20;;;;;;6221994;28;81065;-66
2021/04/08 04:46:28;;;;;;;4.32;2.88;;;23.00;25.10;;;;;;6215748;27;81570;-65
2021/04/08 04:49:28;;;;;;;3.65;2.75;;;23.00;25.10;;;;;;6214895;28;80663;-66
2021/04/08 04:52:29;;;;;;;5.40;2.58;;;23.10;25.30;;;;;;6197693;28;80790;-66
2021/04/08 04:55:29;;;;;;;2.90;2.45;;;23.00;25.50;;;;;;6194056;28;80805;-66
2021/04/08 04:58:30;;;;;;;3.45;2.67;;;23.00;25.80;;;;;;6206750;28;80843;-66
2021/04/08 05:01:30;;;;;;;3.60;2.85;;;23.10;26.10;;;;;;6206274;28;81460;-66
2021/04/08 05:04:31;;;;;;;5.28;2.72;;;23.10;26.40;;;;;;6214814;28;82819;-65
2021/04/08 05:07:31;;;;;;;3.28;2.83;;;23.10;26.60;;;;;;6204338;27;81012;-66
2021/04/08 05:10:32;;;;;;;7.50;3.08;;;23.00;26.60;;;;;;6203027;27;80670;-68
2021/04/08 05:13:33;;;;;;;3.40;2.03;;;23.10;26.50;;;;;;6198443;27;81347;-67
2021/04/08 05:16:33;;;;;;;4.32;2.80;;;23.00;26.60;;;;;;6204209;28;80955;-68
2021/04/08 05:19:34;;;;;;;5.70;2.38;;;23.10;26.70;;;;;;6215780;28;80531;-67
2021/04/08 05:22:34;;;;;;;3.63;2.70;;;23.00;26.80;;;;;;6219074;28;81945;-67
2021/04/08 05:25:35;;;;;;;3.95;2.58;;;23.10;26.90;;;;;;6199002;27;81582;-67
2021/04/08 05:28:35;;;;;;;4.43;2.63;;;23.10;27.00;;;;;;6207671;28;80280;-66
2021/04/08 05:31:36;;;;;;;4.70;2.83;;;23.10;27.90;;;;;;6200151;27;82842;-67
2021/04/08 05:34:36;;;;;;;5.05;3.20;;;23.20;27.80;;;;;;6193674;28;81618;-67
2021/04/08 05:37:37;;;;;;;7.00;3.85;;;23.10;27.80;;;;;;6221063;27;80509;-68
2021/04/08 05:40:37;;;;;;;9.23;4.40;;;23.20;28.40;;;;;;6201243;28;80825;-68
2021/04/08 05:43:38;;;;;;;19.13;8.23;;;23.10;29.70;;;;;;6196402;27;80932;-68
2021/04/08 05:46:38;;;;;;;13.65;6.57;;;23.10;30.90;;;;;;6219258;27;80257;-68
2021/04/08 05:49:39;;;;;;;11.93;4.18;;;23.20;29.90;;;;;;6200812;28;81386;-68
2021/04/08 05:52:39;;;;;;;20.30;8.65;;;23.10;30.20;;;;;;6224626;27;80930;-67
2021/04/08 05:55:40;;;;;;;16.45;7.25;;;23.10;31.80;;;;;;6211080;27;80998;-68
2021/04/08 05:58:40;;;;;;;18.63;8.27;;;23.10;31.40;;;;;;6210049;28;88375;-67
2021/04/08 06:01:41;;;;;;;15.48;7.10;;;23.10;31.30;;;;;;6186734;28;80884;-67
2021/04/08 06:04:42;;;;;;;12.70;5.55;;;23.10;31.00;;;;;;6204659;28;81689;-68
2021/04/08 06:07:42;;;;;;;8.73;4.95;;;23.10;30.40;;;;;;6220611;28;81056;-66
2021/04/08 06:10:43;;;;;;;9.90;5.32;;;23.10;30.10;;;;;;6187131;27;83010;-67
2021/04/08 06:13:46;;;;;;;6.95;4.28;;;23.10;30.00;;;;;;6191974;28;80835;-66
2021/04/08 06:16:47;;;;;;;6.28;4.50;;;23.10;30.00;;;;;;6201414;28;80538;-67
2021/04/08 06:19:47;;;;;;;9.10;4.68;;;23.10;30.00;;;;;;6223122;28;81951;-67
2021/04/08 06:22:48;;;;;;;10.65;4.45;;;23.00;30.20;;;;;;6221832;28;81473;-67
2021/04/08 06:25:48;;;;;;;8.70;4.32;;;23.00;30.00;;;;;;6225378;27;83340;-67
2021/04/08 06:28:49;;;;;;;8.27;4.28;;;23.00;29.90;;;;;;6213851;28;81506;-69
2021/04/08 06:31:49;;;;;;;6.60;4.13;;;23.00;30.00;;;;;;6209620;27;80847;-67
2021/04/08 06:34:50;;;;;;;6.47;3.45;;;23.00;30.10;;;;;;6194493;28;81063;-70
2021/04/08 06:37:51;;;;;;;8.38;3.63;;;22.90;30.20;;;;;;6199883;27;81211;-68
2021/04/08 06:40:51;;;;;;;7.88;3.60;;;22.90;30.60;;;;;;6199971;28;80715;-66
2021/04/08 06:43:52;;;;;;;7.97;3.97;;;22.90;30.00;;;;;;6192743;28;81574;-66
2021/04/08 06:46:52;;;;;;;10.13;4.18;;;22.90;30.50;;;;;;6207908;27;80951;-66
2021/04/08 06:49:53;;;;;;;11.18;3.95;;;22.90;30.20;;;;;;6198378;28;80990;-66
2021/04/08 06:52:53;;;;;;;6.97;3.65;;;22.90;29.90;;;;;;6206810;28;81043;-66
2021/04/08 06:55:54;;;;;;;7.40;3.38;;;22.90;30.90;;;;;;6208555;28;83491;-68
2021/04/08 06:58:54;;;;;;;6.95;3.28;;;22.90;31.10;;;;;;6192999;28;81858;-64
2021/04/08 07:01:55;;;;;;;9.93;3.25;;;22.90;31.00;;;;;;6187223;28;81639;-67
2021/04/08 07:04:58;;;;;;;6.22;3.20;;;22.90;30.80;;;;;;6207002;28;84283;-69
2021/04/08 07:07:58;;;;;;;5.25;3.25;;;22.90;30.70;;;;;;6172183;28;80760;-68
2021/04/08 07:10:59;;;;;;;5.63;3.38;;;22.90;30.60;;;;;;6191678;28;81409;-68
2021/04/08 07:14:00;;;;;;;6.75;3.35;;;22.90;30.40;;;;;;6194755;27;81017;-68
2021/04/08 07:17:00;;;;;;;7.55;3.17;;;22.90;30.40;;;;;;6191659;28;80313;-68
2021/04/08 07:20:01;;;;;;;5.78;3.00;;;22.90;30.60;;;;;;6199613;28;82841;-67
2021/04/08 07:23:01;;;;;;;6.65;3.83;;;22.90;30.70;;;;;;6198517;27;81537;-68
2021/04/08 07:26:02;;;;;;;8.27;3.33;;;22.90;30.70;;;;;;6200903;28;82659;-67
2021/04/08 07:29:03;;;;;;;6.25;3.75;;;22.90;31.30;;;;;;6212469;28;81149;-67
2021/04/08 07:32:03;;;;;;;7.10;3.53;;;22.90;30.00;;;;;;6216581;28;82793;-66
2021/04/08 07:35:04;;;;;;;5.72;2.95;;;22.90;30.50;;;;;;6207042;28;80455;-65
2021/04/08 07:38:04;;;;;;;11.43;3.67;;;23.00;31.30;;;;;;6194717;27;80941;-67
2021/04/08 07:41:05;;;;;;;7.70;3.50;;;23.00;34.80;;;;;;6212527;28;80675;-67
2021/04/08 07:44:05;;;;;;;8.30;4.10;;;23.10;36.70;;;;;;6193618;27;80510;-67
2021/04/08 07:47:06;;;;;;;8.30;3.92;;;23.10;36.60;;;;;;6201331;27;80858;-67
2021/04/08 07:50:06;;;;;;;8.75;4.38;;;23.10;40.30;;;;;;6213447;28;81860;-70
2021/04/08 07:53:07;;;;;;;4.53;3.55;;;23.20;44.70;;;;;;6200256;28;80563;-68
2021/04/08 07:56:08;;;;;;;5.63;3.70;;;23.20;45.10;;;;;;6200509;27;81616;-68
2021/04/08 07:59:08;;;;;;;8.77;3.67;;;23.30;43.20;;;;;;6196192;28;82052;-66
2021/04/08 08:02:09;;;;;;;4.75;3.35;;;23.30;42.70;;;;;;6189812;28;81919;-65
2021/04/08 08:05:09;;;;;;;7.15;3.70;;;23.30;42.80;;;;;;6191180;28;80856;-65
2021/04/08 08:08:10;;;;;;;7.28;3.75;;;23.40;41.70;;;;;;6221862;27;82785;-66
2021/04/08 08:11:10;;;;;;;7.70;3.95;;;23.40;40.70;;;;;;6212735;27;80918;-66
2021/04/08 08:14:11;;;;;;;7.88;4.10;;;23.40;39.70;;;;;;6198166;28;80439;-66
2021/04/08 08:17:12;;;;;;;5.82;3.80;;;23.40;38.20;;;;;;6207537;28;81520;-66
2021/04/08 08:20:13;;;;;;;8.43;4.07;;;23.40;39.00;;;;;;6198269;28;85561;-66
2021/04/08 08:23:13;;;;;;;8.80;3.95;;;23.50;36.10;;;;;;6195037;28;80552;-66
2021/04/08 08:26:14;;;;;;;9.15;4.22;;;23.50;36.00;;;;;;6199605;28;81394;-67
2021/04/08 08:29:17;;;;;;;8.27;4.22;;;23.50;35.30;;;;;;6190704;28;80569;-66
2021/04/08 08:32:18;;;;;;;11.60;5.38;;;23.50;34.90;;;;;;6195850;28;81112;-67
2021/04/08 08:35:18;;;;;;;6.35;4.28;;;23.60;34.50;;;;;;6200122;28;80563;-67
2021/04/08 08:38:19;;;;;;;7.63;4.22;;;23.60;34.10;;;;;;6210364;28;81735;-66
2021/04/08 08:41:19;;;;;;;12.45;4.63;;;23.60;34.50;;;;;;6207970;28;81796;-66
2021/04/08 08:44:20;;;;;;;9.73;5.97;;;23.60;35.80;;;;;;6204923;28;82814;-66
2021/04/08 08:47:21;;;;;;;13.98;5.25;;;23.60;39.50;;;;;;6207906;28;82783;-67
2021/04/08 08:50:21;;;;;;;13.70;5.43;;;23.70;40.50;;;;;;6195363;28;81002;-66
2021/04/08 08:53:22;;;;;;;9.93;5.45;;;23.70;44.70;;;;;;6198792;28;80993;-65
2021/04/08 08:56:22;;;;;;;12.13;5.22;;;23.70;43.50;;;;;;6187505;28;80642;-68
2021/04/08 08:59:23;;;;;;;12.40;5.45;;;23.70;39.40;;;;;;6206699;28;89994;-67
2021/04/08 09:02:23;;;;;;;10.48;4.65;;;23.60;38.60;;;;;;6204377;28;80607;-67
2021/04/08 09:05:24;;;;;;;16.02;5.07;;;23.60;38.40;;;;;;6187729;28;81095;-67
2021/04/08 09:08:28;;;;;;;10.40;5.13;;;23.60;38.30;;;;;;6190761;28;82080;-68
2021/04/08 09:11:32;;;;;;;10.38;3.95;;;23.60;38.00;;;;;;6203934;28;81358;-67
2021/04/08 09:14:32;;;;;;;10.95;4.28;;;23.60;37.30;;;;;;6207920;28;81311;-68
2021/04/08 09:17:33;;;;;;;11.85;4.35;;;23.60;37.20;;;;;;6198984;28;80761;-67
2021/04/08 09:20:33;;;;;;;8.35;3.90;;;23.60;36.00;;;;;;6208566;28;80842;-67
2021/04/08 09:23:34;;;;;;;11.60;4.63;;;23.60;34.40;;;;;;6192950;28;81374;-67
2021/04/08 09:26:34;;;;;;;7.90;4.40;;;23.50;33.00;;;;;;6214922;28;81202;-66
2021/04/08 09:29:41;;;;;;;10.02;4.65;;;23.40;31.90;;;;;;6214131;28;80830;-66
2021/04/08 09:32:42;;;;;;;9.50;4.30;;;23.30;31.60;;;;;;6208475;27;80756;-66
2021/04/08 09:35:43;;;;;;;9.13;4.43;;;23.20;30.90;;;;;;6193747;28;82267;-67
2021/04/08 09:38:44;;;;;;;11.32;5.55;;;23.10;30.60;;;;;;6198180;28;90429;-66
2021/04/08 09:41:44;;;;;;;11.30;4.82;;;23.10;30.40;;;;;;6197289;27;81587;-67
2021/04/08 09:44:45;;;;;;;9.32;5.18;;;23.00;30.10;;;;;;6193731;28;83458;-66
2021/04/08 09:47:45;;;;;;;9.48;4.35;;;23.00;29.80;;;;;;6188159;28;80974;-66
2021/04/08 09:50:46;;;;;;;7.85;4.00;;;22.90;29.50;;;;;;6199406;28;80469;-66
2021/04/08 09:53:46;;;;;;;10.85;4.43;;;22.80;29.40;;;;;;6198559;27;80688;-65
2021/04/08 09:56:47;;;;;;;7.47;3.80;;;22.70;29.00;;;;;;6212886;28;80517;-64
2021/04/08 09:59:48;;;;;;;9.10;3.85;;;22.70;29.00;;;;;;6209898;28;80911;-68
2021/04/08 10:02:48;;;;;;;10.63;4.38;;;22.70;30.00;;;;;;6203390;28;80740;-65
2021/04/08 10:05:49;;;;;;;10.30;4.50;;;22.80;30.00;;;;;;6200813;27;82265;-66
2021/04/08 10:08:52;;;;;;;8.02;3.60;;;22.80;30.10;;;;;;6209787;28;81057;-66
2021/04/08 10:11:53;;;;;;;5.78;3.75;;;22.80;29.80;;;;;;6227145;28;81006;-66
2021/04/08 10:14:53;;;;;;;11.07;4.43;;;22.90;30.50;;;;;;6205426;28;81787;-66
2021/04/08 10:17:54;;;;;;;7.43;3.47;;;22.90;30.20;;;;;;6223872;28;80597;-67
2021/04/08 10:20:54;;;;;;;9.15;3.50;;;23.00;30.20;;;;;;6209204;28;80674;-67
2021/04/08 10:23:55;;;;;;;7.18;3.83;;;23.00;30.80;;;;;;6207771;28;80836;-65
2021/04/08 10:26:55;;;;;;;6.97;2.90;;;23.10;29.90;;;;;;6199665;27;81461;-65
2021/04/08 10:29:56;;;;;;;8.30;3.35;;;23.20;30.30;;;;;;6198751;28;80660;-65
2021/04/08 10:32:56;;;;;;;11.13;3.47;;;23.20;30.20;;;;;;6192687;28;80687;-66
2021/04/08 10:35:57;;;;;;;7.10;3.13;;;23.20;30.30;;;;;;6195427;28;81389;-65
2021/04/08 10:38:57;;;;;;;6.53;3.17;;;23.20;30.90;;;;;;6195073;28;81526;-66
2021/04/08 10:41:58;;;;;;;5.38;2.63;;;23.20;30.60;;;;;;6222763;27;82156;-66
2021/04/08 10:44:58;;;;;;;5.13;2.58;;;23.20;30.90;;;;;;6212781;28;81847;-66
2021/04/08 10:47:59;;;;;;;5.20;2.33;;;23.30;31.30;;;;;;6193852;28;80957;-65
2021/04/08 10:51:00;;;;;;;6.28;2.67;;;23.30;30.60;;;;;;6190029;28;80862;-66
2021/04/08 10:54:00;;;;;;;5.68;3.20;;;23.30;30.60;;;;;;6183032;28;80724;-66
2021/04/08 10:57:01;;;;;;;7.00;2.72;;;23.20;30.40;;;;;;6198971;28;81251;-68
2021/04/08 11:00:01;;;;;;;4.18;2.20;;;23.20;30.60;;;;;;6197591;27;81507;-66
2021/04/08 11:03:02;;;;;;;6.43;2.72;;;23.20;31.30;;;;;;6198713;28;81379;-69
2021/04/08 11:06:02;;;;;;;5.53;3.05;;;23.20;31.00;;;;;;6212248;28;81062;-68
2021/04/08 11:09:03;;;;;;;6.13;3.00;;;23.20;30.70;;;;;;6216207;27;80830;-67
2021/04/08 11:12:03;;;;;;;7.63;2.63;;;23.20;31.20;;;;;;6221590;27;80706;-67
2021/04/08 11:15:04;;;;;;;9.10;2.90;;;23.20;30.70;;;;;;6207675;27;80628;-67
2021/04/08 11:18:04;;;;;;;3.85;2.38;;;23.20;30.60;;;;;;6208299;28;81608;-67
2021/04/08 11:21:05;;;;;;;5.57;2.63;;;23.20;30.50;;;;;;6204217;28;80860;-66
2021/04/08 11:24:05;;;;;;;5.15;2.17;;;23.20;30.20;;;;;;6225636;27;80653;-65
2021/04/08 11:27:06;;;;;;;4.43;2.50;;;23.20;30.40;;;;;;6202886;27;80410;-65
2021/04/08 11:30:06;;;;;;;7.97;2.47;;;23.20;30.50;;;;;;6195137;28;80967;-64
2021/04/08 11:33:07;;;;;;;6.47;2.55;;;23.20;30.30;;;;;;6204178;28;80607;-64
2021/04/08 11:36:07;;;;;;;4.00;2.47;;;23.30;30.00;;;;;;6205497;28;80927;-63
2021/04/08 11:39:08;;;;;;;4.55;2.33;;;23.30;29.80;;;;;;6205716;28;80662;-64
2021/04/08 11:42:08;;;;;;;5.22;2.53;;;23.30;29.50;;;;;;6213192;28;81108;-63
2021/04/08 11:45:09;;;;;;;5.03;2.13;;;23.30;29.40;;;;;;6198235;28;83455;-63
2021/04/08 11:48:09;;;;;;;4.57;2.30;;;23.40;29.40;;;;;;6198176;28;81525;-65
2021/04/08 11:51:10;;;;;;;8.63;2.10;;;23.40;29.30;;;;;;6196117;28;80962;-66
2021/04/08 11:54:10;;;;;;;5.93;2.97;;;23.40;29.40;;;;;;6203595;28;81553;-65
2021/04/08 11:57:11;;;;;;;5.22;2.90;;;23.40;29.50;;;;;;6198467;28;81625;-65
2021/04/08 12:00:12;;;;;;;4.78;2.33;;;23.40;29.20;;;;;;6196261;28;80833;-65
2021/04/08 12:03:12;;;;;;;5.68;3.28;;;23.40;28.90;;;;;;6207499;27;79995;-64
2021/04/08 12:06:13;;;;;;;11.38;6.25;;;23.40;29.00;;;;;;6217231;27;81387;-66
2021/04/08 12:09:14;;;;;;;22.27;10.00;;;23.40;29.00;;;;;;6207781;27;81397;-63
2021/04/08 12:12:14;;;;;;;28.73;11.57;;;23.40;29.20;;;;;;6188567;27;84490;-64
2021/04/08 12:15:15;;;;;;;26.02;13.25;;;23.40;29.10;;;;;;6197975;28;83735;-64
2021/04/08 12:18:15;;;;;;;24.27;12.88;;;23.50;29.10;;;;;;6196628;28;83328;-64
2021/04/08 12:21:17;;;;;;;28.27;13.52;;;23.50;29.00;;;;;;6178510;28;84463;-63
2021/04/08 12:24:18;;;;;;;24.20;12.50;;;23.50;29.00;;;;;;6195224;27;83824;-64
2021/04/08 12:27:18;;;;;;;22.92;13.50;;;23.60;29.00;;;;;;6196114;28;83866;-64
2021/04/08 12:30:20;;;;;;;24.35;13.05;;;23.50;29.00;;;;;;6196372;27;83396;-65
2021/04/08 12:33:20;;;;;;;24.13;13.25;;;23.60;29.00;;;;;;6189466;28;83106;-65
2021/04/08 12:36:21;;;;;;;19.08;11.20;;;23.60;29.10;;;;;;6188144;28;83708;-65
2021/04/08 12:39:21;;;;;;;18.55;10.18;;;23.60;29.00;;;;;;6192067;28;83572;-66
2021/04/08 12:42:22;;;;;;;18.08;9.90;;;23.60;29.00;;;;;;6199776;28;83006;-67
2021/04/08 12:45:22;;;;;;;17.73;9.60;;;23.60;29.00;;;;;;6209174;28;82890;-65
2021/04/08 12:48:23;;;;;;;15.02;8.65;;;23.60;29.10;;;;;;6217393;27;80848;-65
2021/04/08 12:51:23;;;;;;;15.88;8.38;;;23.60;29.00;;;;;;6224645;28;81686;-65
2021/04/08 12:54:24;;;;;;;15.85;8.13;;;23.60;29.00;;;;;;6219810;27;80638;-64
2021/04/08 12:57:24;;;;;;;13.50;7.60;;;23.50;29.00;;;;;;6207671;28;80826;-64
2021/04/08 13:00:25;;;;;;;10.18;6.75;;;23.50;29.00;;;;;;6191770;28;81749;-64
2021/04/08 13:03:26;;;;;;;10.43;6.53;;;23.50;29.00;;;;;;6200856;28;82408;-66
2021/04/08 13:06:26;;;;;;;12.65;6.65;;;23.50;29.00;;;;;;6214848;27;81462;-65
2021/04/08 13:09:27;;;;;;;12.52;6.88;;;23.50;29.00;;;;;;6221161;28;81463;-65
2021/04/08 13:12:27;;;;;;;9.27;5.88;;;23.60;29.60;;;;;;6207554;27;80537;-66
2021/04/08 13:15:28;;;;;;;13.40;6.18;;;23.60;29.70;;;;;;6199178;28;80412;-65
2021/04/08 13:18:29;;;;;;;10.77;5.70;;;23.60;29.70;;;;;;6198670;28;81609;-66
2021/04/08 13:21:29;;;;;;;7.63;4.88;;;23.60;29.60;;;;;;6193552;28;81512;-65
2021/04/08 13:24:29;;;;;;;7.53;4.05;;;23.60;29.40;;;;;;6190421;28;80331;-66
2021/04/08 13:27:30;;;;;;;8.18;5.15;;;23.60;29.80;;;;;;6207409;28;80921;-65
2021/04/08 13:30:30;;;;;;;8.10;4.57;;;23.60;29.70;;;;;;6204568;27;80725;-66
2021/04/08 13:33:31;;;;;;;6.13;4.15;;;23.60;29.70;;;;;;6203256;27;83720;-66
2021/04/08 13:36:31;;;;;;;7.00;4.20;;;23.60;29.90;;;;;;6208983;28;81573;-64
2021/04/08 13:39:32;;;;;;;6.93;3.47;;;23.60;29.60;;;;;;6213502;28;80327;-65
2021/04/08 13:42:33;;;;;;;8.48;4.40;;;23.60;29.40;;;;;;6211314;28;83298;-64
2021/04/08 13:45:33;;;;;;;7.40;4.22;;;23.60;30.00;;;;;;6212045;27;80709;-67
2021/04/08 13:48:33;;;;;;;13.93;5.60;;;23.60;29.60;;;;;;6194994;28;81866;-66
2021/04/08 13:51:34;;;;;;;10.68;4.05;;;23.60;29.70;;;;;;6209377;27;81570;-65
2021/04/08 13:54:35;;;;;;;10.10;4.32;;;23.60;29.90;;;;;;6203014;28;80673;-66
2021/04/08 13:57:35;;;;;;;10.93;4.18;;;23.60;29.60;;;;;;6192439;28;81163;-67
2021/04/08 14:00:37;;;;;;;8.85;4.45;;;23.50;30.00;;;;;;6215275;28;80493;-67
2021/04/08 14:03:38;;;;;;;12.55;4.10;;;23.60;30.10;;;;;;6204832;28;81573;-67
2021/04/08 14:06:38;;;;;;;10.68;4.43;;;23.60;30.00;;;;;;6215559;28;81884;-66
2021/04/08 14:09:39;;;;;;;9.43;4.68;;;23.60;30.10;;;;;;6214460;27;82170;-64
2021/04/08 14:12:41;;;;;;;9.00;3.83;;;23.60;29.80;;;;;;6204552;27;81362;-67
2021/04/08 14:15:43;;;;;;;7.32;4.25;;;23.50;30.60;;;;;;6207532;28;81182;-66
2021/04/08 14:18:43;;;;;;;9.35;3.88;;;23.60;29.70;;;;;;6201924;27;81623;-66
2021/04/08 14:21:44;;;;;;;8.40;3.70;;;23.50;29.70;;;;;;6197809;28;80774;-67
2021/04/08 14:24:44;;;;;;;8.70;3.75;;;23.50;30.00;;;;;;6203577;28;80573;-67
2021/04/08 14:27:45;;;;;;;7.80;3.67;;;23.50;30.40;;;;;;6200206;28;80529;-67
2021/04/08 14:30:45;;;;;;;14.45;3.85;;;23.50;30.10;;;;;;6199112;27;80593;-67
2021/04/08 14:33:46;;;;;;;5.60;2.83;;;23.50;30.30;;;;;;6198556;27;80893;-67
2021/04/08 14:36:46;;;;;;;8.02;2.83;;;23.50;31.10;;;;;;6214142;27;81001;-68
2021/04/08 14:39:47;;;;;;;5.15;3.08;;;23.50;30.50;;;;;;6208237;28;81506;-67
2021/04/08 14:42:47;;;;;;;5.60;2.60;;;23.40;30.10;;;;;;6208788;28;80739;-67
2021/04/08 14:45:48;;;;;;;6.22;2.53;;;23.40;30.50;;;;;;6204086;28;83600;-66
2021/04/08 14:48:48;;;;;;;6.05;2.70;;;23.40;30.30;;;;;;6200190;28;80739;-65
2021/04/08 14:51:49;;;;;;;4.80;2.30;;;23.40;30.00;;;;;;6197416;28;82163;-65
2021/04/08 14:54:49;;;;;;;5.57;2.22;;;23.40;31.10;;;;;;6204523;28;81011;-64
2021/04/08 14:57:50;;;;;;;5.57;2.67;;;23.40;31.10;;;;;;6211323;28;81407;-66
2021/04/08 15:00:50;;;;;;;4.85;2.33;;;23.40;30.40;;;;;;6192501;28;81779;-65
2021/04/08 15:03:51;;;;;;;10.18;2.38;;;23.40;30.80;;;;;;6230072;28;90553;-66
2021/04/08 15:06:54;;;;;;;4.20;2.15;;;23.40;30.90;;;;;;6218970;28;81579;-66
2021/04/08 15:09:54;;;;;;;3.20;1.77;;;23.40;30.40;;;;;;6210518;27;80647;-66
2021/04/08 15:12:55;;;;;;;3.20;2.05;;;23.40;30.50;;;;;;6201473;28;80805;-65
2021/04/08 15:15:55;;;;;;;4.65;2.20;;;23.30;30.40;;;;;;6198106;28;82600;-66
2021/04/08 15:18:56;;;;;;;6.38;2.05;;;23.30;31.10;;;;;;6211538;28;80492;-65
2021/04/08 15:21:56;;;;;;;5.57;2.33;;;23.30;31.10;;;;;;6209723;28;81149;-65
2021/04/08 15:24:57;;;;;;;3.78;2.20;;;23.30;31.40;;;;;;6201483;28;81243;-65
2021/04/08 15:27:57;;;;;;;6.20;2.38;;;23.40;31.90;;;;;;6217080;27;81368;-66
2021/04/08 15:30:58;;;;;;;4.20;2.40;;;23.40;31.50;;;;;;6207630;28;80563;-65
2021/04/08 15:33:58;;;;;;;3.15;2.05;;;23.40;31.40;;;;;;6194897;28;81708;-66
2021/04/08 15:36:59;;;;;;;6.80;1.95;;;23.40;31.60;;;;;;6196254;27;80736;-66